sensor_id;sensor_type;location;lat;lon;timestamp;pressure;altitude;pressure_sealevel;temperature;humidity
77799;BME280;66989;50.426;15.352;2023-05-16T00:02:18;97703.81;;;8.55;97.58
77799;BME280;66989;50.426;15.352;2023-05-16T00:04:44;97699.88;;;8.49;98.02
77799;BME280;66989;50.426;15.352;2023-05-16T00:07:10;97701.53;;;8.50;99.16
77799;BME280;66989;50.426;15.352;2023-05-16T00:09:35;97699.03;;;8.48;99.13
77799;BME280;66989;50.426;15.352;2023-05-16T00:12:01;97713.13;;;8.47;99.34
77799;BME280;66989;50.426;15.352;2023-05-16T00:14:26;97711.69;;;8.43;99.06
77799;BME280;66989;50.426;15.352;2023-05-16T00:16:52;97720.03;;;8.37;98.93
77799;BME280;66989;50.426;15.352;2023-05-16T00:19:18;97728.41;;;8.42;99.44
77799;BME280;66989;50.426;15.352;2023-05-16T00:21:44;97730.91;;;8.44;99.91
77799;BME280;66989;50.426;15.352;2023-05-16T00:24:09;97722.91;;;8.45;99.85
77799;BME280;66989;50.426;15.352;2023-05-16T00:26:35;97721.50;;;8.52;100.00
77799;BME280;66989;50.426;15.352;2023-05-16T00:29:00;97723.66;;;8.59;100.00
77799;BME280;66989;50.426;15.352;2023-05-16T00:31:26;97724.16;;;8.64;100.00
77799;BME280;66989;50.426;15.352;2023-05-16T00:33:52;97724.50;;;8.70;100.00
77799;BME280;66989;50.426;15.352;2023-05-16T00:36:17;97726.09;;;8.73;100.00
77799;BME280;66989;50.426;15.352;2023-05-16T00:38:43;97721.53;;;8.75;100.00
77799;BME280;66989;50.426;15.352;2023-05-16T00:41:08;97724.03;;;8.76;99.98
77799;BME280;66989;50.426;15.352;2023-05-16T00:43:34;97722.72;;;8.82;100.00
77799;BME280;66989;50.426;15.352;2023-05-16T00:45:59;97727.75;;;8.85;100.00
77799;BME280;66989;50.426;15.352;2023-05-16T00:48:25;97715.09;;;8.90;100.00
77799;BME280;66989;50.426;15.352;2023-05-16T00:50:51;97712.94;;;8.95;100.00
77799;BME280;66989;50.426;15.352;2023-05-16T00:53:17;97713.53;;;8.99;100.00
77799;BME280;66989;50.426;15.352;2023-05-16T00:55:43;97714.13;;;9.02;100.00
77799;BME280;66989;50.426;15.352;2023-05-16T00:58:10;97715.81;;;9.03;99.64
77799;BME280;66989;50.426;15.352;2023-05-16T01:00:36;97710.44;;;9.05;99.89
77799;BME280;66989;50.426;15.352;2023-05-16T01:03:03;97720.72;;;9.08;99.74
77799;BME280;66989;50.426;15.352;2023-05-16T01:05:29;97723.22;;;9.10;99.43
77799;BME280;66989;50.426;15.352;2023-05-16T01:07:55;97725.25;;;9.06;98.98
77799;BME280;66989;50.426;15.352;2023-05-16T01:10:21;97725.59;;;9.01;98.88
77799;BME280;66989;50.426;15.352;2023-05-16T01:13:01;97726.56;;;9.00;98.59
77799;BME280;66989;50.426;15.352;2023-05-16T01:15:38;97721.44;;;8.99;98.60
77799;BME280;66989;50.426;15.352;2023-05-16T01:18:22;97726.78;;;8.97;98.37
77799;BME280;66989;50.426;15.352;2023-05-16T01:21:03;97724.91;;;8.99;98.57
77799;BME280;66989;50.426;15.352;2023-05-16T01:26:25;97721.53;;;8.97;98.62
77799;BME280;66989;50.426;15.352;2023-05-16T01:28:52;97720.81;;;8.95;98.29
77799;BME280;66989;50.426;15.352;2023-05-16T01:31:19;97730.03;;;8.90;97.83
77799;BME280;66989;50.426;15.352;2023-05-16T01:33:45;97724.16;;;8.86;98.41
77799;BME280;66989;50.426;15.352;2023-05-16T01:36:32;97717.47;;;8.82;98.31
77799;BME280;66989;50.426;15.352;2023-05-16T01:39:25;97723.81;;;8.79;98.53
77799;BME280;66989;50.426;15.352;2023-05-16T01:42:09;97729.28;;;8.76;98.58
77799;BME280;66989;50.426;15.352;2023-05-16T01:47:10;97733.84;;;8.74;98.88
77799;BME280;66989;50.426;15.352;2023-05-16T01:49:46;97733.72;;;8.76;99.25
77799;BME280;66989;50.426;15.352;2023-05-16T01:52:18;97738.00;;;8.77;99.02
77799;BME280;66989;50.426;15.352;2023-05-16T01:54:47;97732.03;;;8.75;99.21
77799;BME280;66989;50.426;15.352;2023-05-16T01:57:16;97745.31;;;8.73;98.74
77799;BME280;66989;50.426;15.352;2023-05-16T01:59:43;97737.44;;;8.73;99.28
77799;BME280;66989;50.426;15.352;2023-05-16T02:02:08;97739.09;;;8.74;99.47
77799;BME280;66989;50.426;15.352;2023-05-16T02:04:33;97732.75;;;8.77;99.77
77799;BME280;66989;50.426;15.352;2023-05-16T02:06:59;97736.25;;;8.77;99.86
77799;BME280;66989;50.426;15.352;2023-05-16T02:09:26;97730.72;;;8.81;99.76
77799;BME280;66989;50.426;15.352;2023-05-16T02:11:51;97722.72;;;8.82;99.73
77799;BME280;66989;50.426;15.352;2023-05-16T02:14:17;97734.94;;;8.83;99.67
77799;BME280;66989;50.426;15.352;2023-05-16T02:16:42;97734.94;;;8.83;99.58
77799;BME280;66989;50.426;15.352;2023-05-16T02:19:07;97737.56;;;8.83;99.65
77799;BME280;66989;50.426;15.352;2023-05-16T02:21:33;97741.84;;;8.84;99.93
77799;BME280;66989;50.426;15.352;2023-05-16T02:23:58;97744.50;;;8.84;99.77
77799;BME280;66989;50.426;15.352;2023-05-16T02:26:24;97742.69;;;8.85;100.00
77799;BME280;66989;50.426;15.352;2023-05-16T02:28:49;97744.38;;;8.86;99.86
77799;BME280;66989;50.426;15.352;2023-05-16T02:31:31;97748.66;;;8.87;99.83
77799;BME280;66989;50.426;15.352;2023-05-16T02:33:59;97750.22;;;8.89;99.93
77799;BME280;66989;50.426;15.352;2023-05-16T02:36:25;97751.19;;;8.88;99.95
77799;BME280;66989;50.426;15.352;2023-05-16T02:38:50;97744.13;;;8.89;99.86
77799;BME280;66989;50.426;15.352;2023-05-16T02:41:16;97748.78;;;8.85;99.59
77799;BME280;66989;50.426;15.352;2023-05-16T02:43:41;97746.03;;;8.75;98.96
77799;BME280;66989;50.426;15.352;2023-05-16T02:46:21;97747.94;;;8.73;99.49
77799;BME280;66989;50.426;15.352;2023-05-16T02:48:46;97749.00;;;8.71;99.20
77799;BME280;66989;50.426;15.352;2023-05-16T02:51:12;97757.84;;;8.70;99.90
77799;BME280;66989;50.426;15.352;2023-05-16T02:53:37;97754.88;;;8.74;100.00
77799;BME280;66989;50.426;15.352;2023-05-16T02:56:02;97746.63;;;8.79;100.00
77799;BME280;66989;50.426;15.352;2023-05-16T02:58:31;97741.03;;;8.84;100.00
77799;BME280;66989;50.426;15.352;2023-05-16T03:00:56;97734.69;;;8.86;100.00
77799;BME280;66989;50.426;15.352;2023-05-16T03:03:22;97734.69;;;8.86;100.00
77799;BME280;66989;50.426;15.352;2023-05-16T03:05:47;97736.25;;;8.89;100.00
77799;BME280;66989;50.426;15.352;2023-05-16T03:08:13;97748.31;;;8.91;100.00
77799;BME280;66989;50.426;15.352;2023-05-16T03:10:39;97749.97;;;8.92;100.00
77799;BME280;66989;50.426;15.352;2023-05-16T03:13:04;97750.84;;;8.93;100.00
77799;BME280;66989;50.426;15.352;2023-05-16T03:15:29;97752.50;;;8.94;100.00
77799;BME280;66989;50.426;15.352;2023-05-16T03:17:55;97766.72;;;8.91;99.80
77799;BME280;66989;50.426;15.352;2023-05-16T03:20:20;97767.66;;;8.79;99.02
77799;BME280;66989;50.426;15.352;2023-05-16T03:22:46;97769.03;;;8.61;98.30
77799;BME280;66989;50.426;15.352;2023-05-16T03:25:12;97772.56;;;8.37;99.10
77799;BME280;66989;50.426;15.352;2023-05-16T03:27:37;97774.81;;;8.31;100.00
77799;BME280;66989;50.426;15.352;2023-05-16T03:30:03;97782.59;;;8.32;100.00
77799;BME280;66989;50.426;15.352;2023-05-16T03:32:30;97779.00;;;8.33;100.00
77799;BME280;66989;50.426;15.352;2023-05-16T03:34:55;97775.06;;;8.39;100.00
77799;BME280;66989;50.426;15.352;2023-05-16T03:37:21;97784.28;;;8.44;100.00
77799;BME280;66989;50.426;15.352;2023-05-16T03:39:46;97779.31;;;8.52;100.00
77799;BME280;66989;50.426;15.352;2023-05-16T03:42:11;97792.69;;;8.61;100.00
77799;BME280;66989;50.426;15.352;2023-05-16T03:44:37;97781.63;;;8.68;100.00
77799;BME280;66989;50.426;15.352;2023-05-16T03:47:03;97783.78;;;8.74;100.00
77799;BME280;66989;50.426;15.352;2023-05-16T03:49:28;97797.41;;;8.79;100.00
77799;BME280;66989;50.426;15.352;2023-05-16T03:51:54;97793.81;;;8.81;100.00
77799;BME280;66989;50.426;15.352;2023-05-16T03:54:20;97804.34;;;8.81;100.00
77799;BME280;66989;50.426;15.352;2023-05-16T03:56:45;97807.81;;;8.81;100.00
77799;BME280;66989;50.426;15.352;2023-05-16T03:59:10;97818.56;;;8.78;100.00
77799;BME280;66989;50.426;15.352;2023-05-16T04:01:36;97817.81;;;8.76;100.00
77799;BME280;66989;50.426;15.352;2023-05-16T04:04:01;97811.72;;;8.75;100.00
77799;BME280;66989;50.426;15.352;2023-05-16T04:06:27;97823.91;;;8.76;100.00
77799;BME280;66989;50.426;15.352;2023-05-16T04:08:53;97825.63;;;8.77;100.00
77799;BME280;66989;50.426;15.352;2023-05-16T04:11:18;97826.44;;;8.78;100.00
77799;BME280;66989;50.426;15.352;2023-05-16T04:13:44;97829.28;;;8.75;100.00
77799;BME280;66989;50.426;15.352;2023-05-16T04:16:09;97829.41;;;8.73;100.00
77799;BME280;66989;50.426;15.352;2023-05-16T04:18:34;97836.22;;;8.76;100.00
77799;BME280;66989;50.426;15.352;2023-05-16T04:21:00;97827.16;;;8.80;100.00
77799;BME280;66989;50.426;15.352;2023-05-16T04:23:25;97825.16;;;8.84;100.00
77799;BME280;66989;50.426;15.352;2023-05-16T04:25:51;97834.09;;;8.92;100.00
77799;BME280;66989;50.426;15.352;2023-05-16T04:28:16;97830.78;;;9.01;100.00
77799;BME280;66989;50.426;15.352;2023-05-16T04:30:42;97838.69;;;9.13;100.00
77799;BME280;66989;50.426;15.352;2023-05-16T04:33:07;97839.56;;;9.24;100.00
77799;BME280;66989;50.426;15.352;2023-05-16T04:35:33;97835.97;;;9.37;100.00
77799;BME280;66989;50.426;15.352;2023-05-16T04:37:58;97836.72;;;9.50;100.00
77799;BME280;66989;50.426;15.352;2023-05-16T04:40:23;97836.69;;;9.61;100.00
77799;BME280;66989;50.426;15.352;2023-05-16T04:42:49;97832.38;;;9.71;100.00
77799;BME280;66989;50.426;15.352;2023-05-16T04:45:15;97847.56;;;9.79;99.95
77799;BME280;66989;50.426;15.352;2023-05-16T04:47:40;97845.03;;;9.89;99.55
77799;BME280;66989;50.426;15.352;2023-05-16T04:50:06;97845.38;;;9.95;99.37
77799;BME280;66989;50.426;15.352;2023-05-16T04:52:33;97844.91;;;10.01;98.46
77799;BME280;66989;50.426;15.352;2023-05-16T04:54:58;97840.59;;;10.12;98.75
77799;BME280;66989;50.426;15.352;2023-05-16T04:57:24;97845.59;;;10.15;97.57
77799;BME280;66989;50.426;15.352;2023-05-16T04:59:50;97839.00;;;10.20;97.15
77799;BME280;66989;50.426;15.352;2023-05-16T05:02:15;97829.75;;;10.26;96.65
77799;BME280;66989;50.426;15.352;2023-05-16T05:04:40;97838.72;;;10.34;96.58
77799;BME280;66989;50.426;15.352;2023-05-16T05:07:06;97842.16;;;10.46;96.21
77799;BME280;66989;50.426;15.352;2023-05-16T05:09:32;97857.25;;;10.55;95.57
77799;BME280;66989;50.426;15.352;2023-05-16T05:11:57;97853.84;;;10.65;95.47
77799;BME280;66989;50.426;15.352;2023-05-16T05:14:22;97863.50;;;10.75;94.64
77799;BME280;66989;50.426;15.352;2023-05-16T05:16:48;97860.69;;;10.88;94.59
77799;BME280;66989;50.426;15.352;2023-05-16T05:19:14;97872.13;;;10.98;94.13
77799;BME280;66989;50.426;15.352;2023-05-16T05:21:39;97861.94;;;11.05;92.90
77799;BME280;66989;50.426;15.352;2023-05-16T05:24:05;97872.78;;;11.11;92.74
77799;BME280;66989;50.426;15.352;2023-05-16T05:26:30;97869.50;;;11.19;92.31
77799;BME280;66989;50.426;15.352;2023-05-16T05:28:56;97869.56;;;11.29;91.67
77799;BME280;66989;50.426;15.352;2023-05-16T05:31:21;97866.97;;;11.38;91.14
77799;BME280;66989;50.426;15.352;2023-05-16T05:33:47;97861.06;;;11.46;90.43
77799;BME280;66989;50.426;15.352;2023-05-16T05:36:12;97856.91;;;11.53;89.75
77799;BME280;66989;50.426;15.352;2023-05-16T05:38:37;97851.81;;;11.61;89.44
77799;BME280;66989;50.426;15.352;2023-05-16T05:41:03;97853.38;;;11.74;89.39
77799;BME280;66989;50.426;15.352;2023-05-16T05:43:29;97853.69;;;11.80;88.92
77799;BME280;66989;50.426;15.352;2023-05-16T05:45:55;97853.53;;;11.82;88.21
77799;BME280;66989;50.426;15.352;2023-05-16T05:48:20;97847.47;;;11.91;88.41
77799;BME280;66989;50.426;15.352;2023-05-16T05:50:46;97843.44;;;11.97;87.79
77799;BME280;66989;50.426;15.352;2023-05-16T05:53:11;97839.41;;;12.02;87.79
77799;BME280;66989;50.426;15.352;2023-05-16T05:55:37;97840.16;;;12.14;87.11
77799;BME280;66989;50.426;15.352;2023-05-16T05:58:02;97841.88;;;12.25;86.53
77799;BME280;66989;50.426;15.352;2023-05-16T06:00:27;97845.78;;;12.30;86.19
77799;BME280;66989;50.426;15.352;2023-05-16T06:02:53;97838.28;;;12.35;85.57
77799;BME280;66989;50.426;15.352;2023-05-16T06:05:19;97835.66;;;12.45;85.80
77799;BME280;66989;50.426;15.352;2023-05-16T06:07:45;97832.56;;;12.59;86.02
77799;BME280;66989;50.426;15.352;2023-05-16T06:10:10;97831.75;;;12.78;85.72
77799;BME280;66989;50.426;15.352;2023-05-16T06:12:35;97834.63;;;12.94;84.10
77799;BME280;66989;50.426;15.352;2023-05-16T06:15:01;97835.47;;;13.05;83.64
77799;BME280;66989;50.426;15.352;2023-05-16T06:17:26;97835.44;;;13.14;83.06
77799;BME280;66989;50.426;15.352;2023-05-16T06:19:53;97843.22;;;13.26;82.94
77799;BME280;66989;50.426;15.352;2023-05-16T06:22:18;97839.28;;;13.39;82.10
77799;BME280;66989;50.426;15.352;2023-05-16T06:24:45;97842.91;;;13.48;81.87
77799;BME280;66989;50.426;15.352;2023-05-16T06:27:10;97841.84;;;13.68;81.58
77799;BME280;66989;50.426;15.352;2023-05-16T06:29:35;97834.38;;;13.91;80.94
77799;BME280;66989;50.426;15.352;2023-05-16T06:32:01;97829.81;;;14.11;80.54
77799;BME280;66989;50.426;15.352;2023-05-16T06:34:26;97819.53;;;14.26;79.38
77799;BME280;66989;50.426;15.352;2023-05-16T06:36:57;97825.44;;;14.38;79.13
77799;BME280;66989;50.426;15.352;2023-05-16T06:39:23;97832.72;;;14.54;79.63
77799;BME280;66989;50.426;15.352;2023-05-16T06:41:51;97840.91;;;14.78;78.39
77799;BME280;66989;50.426;15.352;2023-05-16T06:44:17;97839.50;;;15.10;77.42
77799;BME280;66989;50.426;15.352;2023-05-16T06:46:43;97834.13;;;15.45;77.04
77799;BME280;66989;50.426;15.352;2023-05-16T06:49:08;97826.22;;;15.88;76.47
77799;BME280;66989;50.426;15.352;2023-05-16T06:51:36;97814.66;;;16.13;75.38
77799;BME280;66989;50.426;15.352;2023-05-16T06:54:01;97821.44;;;16.50;74.73
77799;BME280;66989;50.426;15.352;2023-05-16T06:56:36;97818.31;;;16.95;72.54
77799;BME280;66989;50.426;15.352;2023-05-16T06:59:04;97819.91;;;17.37;70.73
77799;BME280;66989;50.426;15.352;2023-05-16T07:01:29;97826.72;;;17.64;68.34
77799;BME280;66989;50.426;15.352;2023-05-16T07:03:55;97819.13;;;17.92;68.26
77799;BME280;66989;50.426;15.352;2023-05-16T07:06:20;97816.63;;;18.22;67.42
77799;BME280;66989;50.426;15.352;2023-05-16T07:08:45;97814.16;;;18.43;65.25
77799;BME280;66989;50.426;15.352;2023-05-16T07:11:11;97812.34;;;18.66;63.40
77799;BME280;66989;50.426;15.352;2023-05-16T07:13:37;97823.13;;;18.81;63.24
77799;BME280;66989;50.426;15.352;2023-05-16T07:16:02;97819.59;;;19.04;62.44
77799;BME280;66989;50.426;15.352;2023-05-16T07:18:28;97817.06;;;19.25;61.23
77799;BME280;66989;50.426;15.352;2023-05-16T07:20:53;97822.63;;;19.38;61.21
77799;BME280;66989;50.426;15.352;2023-05-16T07:23:18;97820.34;;;19.50;61.22
77799;BME280;66989;50.426;15.352;2023-05-16T07:25:44;97819.28;;;19.74;60.61
77799;BME280;66989;50.426;15.352;2023-05-16T07:28:09;97808.44;;;20.12;58.15
77799;BME280;66989;50.426;15.352;2023-05-16T07:30:35;97803.53;;;20.52;56.94
77799;BME280;66989;50.426;15.352;2023-05-16T07:33:01;97806.00;;;20.89;55.99
77799;BME280;66989;50.426;15.352;2023-05-16T07:35:26;97793.94;;;21.28;55.47
77799;BME280;66989;50.426;15.352;2023-05-16T07:37:51;97796.59;;;21.56;53.21
77799;BME280;66989;50.426;15.352;2023-05-16T07:40:18;97788.47;;;21.71;53.27
77799;BME280;66989;50.426;15.352;2023-05-16T07:42:49;97798.91;;;21.94;52.99
77799;BME280;66989;50.426;15.352;2023-05-16T07:45:15;97795.88;;;22.10;52.09
77799;BME280;66989;50.426;15.352;2023-05-16T07:47:40;97801.69;;;22.20;51.71
77799;BME280;66989;50.426;15.352;2023-05-16T07:50:06;97809.22;;;22.45;51.14
77799;BME280;66989;50.426;15.352;2023-05-16T07:52:31;97808.44;;;22.51;49.78
77799;BME280;66989;50.426;15.352;2023-05-16T07:54:57;97804.16;;;22.63;49.92
77799;BME280;66989;50.426;15.352;2023-05-16T07:57:24;97804.38;;;22.75;50.45
77799;BME280;66989;50.426;15.352;2023-05-16T07:59:52;97809.97;;;22.93;50.47
77799;BME280;66989;50.426;15.352;2023-05-16T08:02:17;97808.09;;;23.14;49.58
77799;BME280;66989;50.426;15.352;2023-05-16T08:04:43;97809.78;;;23.21;49.40
77799;BME280;66989;50.426;15.352;2023-05-16T08:07:08;97816.22;;;23.40;48.94
77799;BME280;66989;50.426;15.352;2023-05-16T08:09:34;97810.41;;;23.56;48.71
77799;BME280;66989;50.426;15.352;2023-05-16T08:11:59;97818.47;;;23.63;47.21
77799;BME280;66989;50.426;15.352;2023-05-16T08:14:29;97813.09;;;23.56;46.48
77799;BME280;66989;50.426;15.352;2023-05-16T08:16:56;97818.47;;;23.63;46.43
77799;BME280;66989;50.426;15.352;2023-05-16T08:19:22;97821.75;;;23.65;47.00
77799;BME280;66989;50.426;15.352;2023-05-16T08:21:47;97816.97;;;23.87;46.58
77799;BME280;66989;50.426;15.352;2023-05-16T08:24:12;97817.75;;;24.07;46.51
77799;BME280;66989;50.426;15.352;2023-05-16T08:26:38;97821.44;;;24.06;47.34
77799;BME280;66989;50.426;15.352;2023-05-16T08:29:03;97821.84;;;24.17;46.40
77799;BME280;66989;50.426;15.352;2023-05-16T08:31:29;97820.53;;;24.32;45.66
77799;BME280;66989;50.426;15.352;2023-05-16T08:33:54;97823.53;;;24.18;45.99
77799;BME280;66989;50.426;15.352;2023-05-16T08:36:21;97810.81;;;24.31;45.78
77799;BME280;66989;50.426;15.352;2023-05-16T08:38:48;97813.97;;;24.28;46.79
77799;BME280;66989;50.426;15.352;2023-05-16T08:41:13;97813.34;;;24.20;45.07
77799;BME280;66989;50.426;15.352;2023-05-16T08:43:39;97817.09;;;24.12;45.85
77799;BME280;66989;50.426;15.352;2023-05-16T08:46:06;97833.09;;;23.94;46.10
77799;BME280;66989;50.426;15.352;2023-05-16T08:48:32;97830.50;;;23.61;45.60
77799;BME280;66989;50.426;15.352;2023-05-16T08:50:59;97833.19;;;23.47;45.41
77799;BME280;66989;50.426;15.352;2023-05-16T08:53:30;97833.19;;;23.47;46.69
77799;BME280;66989;50.426;15.352;2023-05-16T08:55:58;97837.91;;;23.19;46.38
77799;BME280;66989;50.426;15.352;2023-05-16T08:58:24;97834.00;;;23.35;45.84
77799;BME280;66989;50.426;15.352;2023-05-16T09:00:50;97845.41;;;23.56;45.55
77799;BME280;66989;50.426;15.352;2023-05-16T09:03:16;97857.16;;;23.82;44.41
77799;BME280;66989;50.426;15.352;2023-05-16T09:05:42;97856.06;;;23.96;44.75
77799;BME280;66989;50.426;15.352;2023-05-16T09:08:07;97872.47;;;23.88;44.90
77799;BME280;66989;50.426;15.352;2023-05-16T09:10:32;97871.25;;;23.77;44.12
77799;BME280;66989;50.426;15.352;2023-05-16T09:12:58;97879.53;;;23.89;44.93
77799;BME280;66989;50.426;15.352;2023-05-16T09:15:30;97873.13;;;23.77;46.72
77799;BME280;66989;50.426;15.352;2023-05-16T09:17:59;97875.19;;;23.68;47.31
77799;BME280;66989;50.426;15.352;2023-05-16T09:20:25;97873.75;;;23.72;46.49
77799;BME280;66989;50.426;15.352;2023-05-16T09:22:53;97866.72;;;23.58;47.55
77799;BME280;66989;50.426;15.352;2023-05-16T09:25:20;97871.47;;;23.63;46.94
77799;BME280;66989;50.426;15.352;2023-05-16T09:27:46;97870.44;;;23.64;46.56
77799;BME280;66989;50.426;15.352;2023-05-16T09:30:14;97856.72;;;23.85;45.93
77799;BME280;66989;50.426;15.352;2023-05-16T09:32:43;97866.63;;;24.24;45.50
77799;BME280;66989;50.426;15.352;2023-05-16T09:35:14;97865.22;;;24.60;44.61
77799;BME280;66989;50.426;15.352;2023-05-16T09:37:44;97873.81;;;24.82;43.95
77799;BME280;66989;50.426;15.352;2023-05-16T09:40:11;97886.38;;;24.56;43.78
77799;BME280;66989;50.426;15.352;2023-05-16T09:42:37;97890.53;;;24.52;44.41
77799;BME280;66989;50.426;15.352;2023-05-16T09:45:03;97885.56;;;24.56;44.75
77799;BME280;66989;50.426;15.352;2023-05-16T09:47:31;97884.38;;;24.45;44.19
77799;BME280;66989;50.426;15.352;2023-05-16T09:49:56;97866.06;;;24.60;44.16
77799;BME280;66989;50.426;15.352;2023-05-16T09:52:26;97859.84;;;24.60;44.04
77799;BME280;66989;50.426;15.352;2023-05-16T09:54:53;97862.06;;;25.08;43.54
77799;BME280;66989;50.426;15.352;2023-05-16T09:57:21;97855.31;;;25.49;42.84
77799;BME280;66989;50.426;15.352;2023-05-16T09:59:48;97852.72;;;25.60;41.95
77799;BME280;66989;50.426;15.352;2023-05-16T10:02:14;97857.25;;;25.42;43.11
77799;BME280;66989;50.426;15.352;2023-05-16T10:04:41;97853.44;;;25.74;40.96
77799;BME280;66989;50.426;15.352;2023-05-16T10:07:07;97852.38;;;26.37;39.92
77799;BME280;66989;50.426;15.352;2023-05-16T10:09:36;97844.66;;;26.71;39.47
77799;BME280;66989;50.426;15.352;2023-05-16T10:12:04;97846.56;;;27.12;38.66
77799;BME280;66989;50.426;15.352;2023-05-16T10:14:34;97848.81;;;27.15;38.19
77799;BME280;66989;50.426;15.352;2023-05-16T10:17:02;97848.28;;;26.64;39.63
77799;BME280;66989;50.426;15.352;2023-05-16T10:19:30;97842.84;;;26.64;39.09
77799;BME280;66989;50.426;15.352;2023-05-16T10:21:57;97833.94;;;26.64;39.11
77799;BME280;66989;50.426;15.352;2023-05-16T10:24:38;97830.63;;;25.45;40.31
77799;BME280;66989;50.426;15.352;2023-05-16T10:27:06;97834.66;;;25.11;41.12
77799;BME280;66989;50.426;15.352;2023-05-16T10:29:33;97844.38;;;24.74;42.71
77799;BME280;66989;50.426;15.352;2023-05-16T10:31:59;97833.78;;;24.41;43.00
77799;BME280;66989;50.426;15.352;2023-05-16T10:34:28;97844.69;;;24.14;43.90
77799;BME280;66989;50.426;15.352;2023-05-16T10:36:54;97849.09;;;23.82;44.16
77799;BME280;66989;50.426;15.352;2023-05-16T10:39:20;97835.25;;;23.58;45.09
77799;BME280;66989;50.426;15.352;2023-05-16T10:41:46;97839.78;;;23.45;44.71
77799;BME280;66989;50.426;15.352;2023-05-16T10:44:13;97845.59;;;23.15;46.40
77799;BME280;66989;50.426;15.352;2023-05-16T10:46:43;97837.28;;;23.17;46.75
77799;BME280;66989;50.426;15.352;2023-05-16T10:49:19;97836.44;;;22.96;46.91
77799;BME280;66989;50.426;15.352;2023-05-16T10:52:13;97837.03;;;22.72;47.64
77799;BME280;66989;50.426;15.352;2023-05-16T10:54:48;97838.53;;;22.33;49.20
77799;BME280;66989;50.426;15.352;2023-05-16T10:57:17;97838.19;;;22.01;49.04
77799;BME280;66989;50.426;15.352;2023-05-16T10:59:46;97836.38;;;21.74;50.34
77799;BME280;66989;50.426;15.352;2023-05-16T11:02:29;97826.13;;;21.56;51.07
77799;BME280;66989;50.426;15.352;2023-05-16T11:04:58;97831.63;;;21.20;51.68
77799;BME280;66989;50.426;15.352;2023-05-16T11:07:25;97817.41;;;21.19;52.46
77799;BME280;66989;50.426;15.352;2023-05-16T11:10:03;97807.63;;;21.12;52.52
77799;BME280;66989;50.426;15.352;2023-05-16T11:12:48;97804.59;;;20.72;52.44
77799;BME280;66989;50.426;15.352;2023-05-16T11:15:23;97813.34;;;20.44;54.57
77799;BME280;66989;50.426;15.352;2023-05-16T11:17:53;97828.97;;;20.41;54.41
77799;BME280;66989;50.426;15.352;2023-05-16T11:20:31;97817.88;;;20.44;54.92
77799;BME280;66989;50.426;15.352;2023-05-16T11:25:40;97827.22;;;20.33;55.24
77799;BME280;66989;50.426;15.352;2023-05-16T11:28:07;97828.34;;;20.24;54.82
77799;BME280;66989;50.426;15.352;2023-05-16T11:30:34;97826.72;;;19.93;55.01
77799;BME280;66989;50.426;15.352;2023-05-16T11:32:59;97820.38;;;19.80;55.83
77799;BME280;66989;50.426;15.352;2023-05-16T11:35:24;97825.50;;;19.52;57.27
77799;BME280;66989;50.426;15.352;2023-05-16T11:37:50;97831.25;;;19.11;58.59
77799;BME280;66989;50.426;15.352;2023-05-16T11:40:16;97835.78;;;18.87;58.47
77799;BME280;66989;50.426;15.352;2023-05-16T11:42:47;97841.47;;;18.53;59.57
77799;BME280;66989;50.426;15.352;2023-05-16T11:45:21;97847.09;;;18.35;60.02
77799;BME280;66989;50.426;15.352;2023-05-16T11:47:48;97852.53;;;18.19;60.57
77799;BME280;66989;50.426;15.352;2023-05-16T11:50:21;97849.94;;;17.95;61.66
77799;BME280;66989;50.426;15.352;2023-05-16T11:52:55;97862.19;;;17.65;62.72
77799;BME280;66989;50.426;15.352;2023-05-16T11:55:28;97863.03;;;17.57;63.02
77799;BME280;66989;50.426;15.352;2023-05-16T11:57:54;97857.06;;;17.38;63.45
77799;BME280;66989;50.426;15.352;2023-05-16T12:00:21;97848.91;;;17.32;64.36
77799;BME280;66989;50.426;15.352;2023-05-16T12:02:51;97850.75;;;17.31;64.07
77799;BME280;66989;50.426;15.352;2023-05-16T12:05:17;97849.75;;;17.32;64.02
77799;BME280;66989;50.426;15.352;2023-05-16T12:07:45;97863.38;;;17.29;64.04
77799;BME280;66989;50.426;15.352;2023-05-16T12:10:13;97870.06;;;17.25;64.34
77799;BME280;66989;50.426;15.352;2023-05-16T12:12:40;97872.22;;;17.30;64.85
77799;BME280;66989;50.426;15.352;2023-05-16T12:15:07;97875.72;;;17.22;65.02
77799;BME280;66989;50.426;15.352;2023-05-16T12:17:34;97882.38;;;17.34;64.52
77799;BME280;66989;50.426;15.352;2023-05-16T12:20:00;97891.53;;;17.48;63.75
77799;BME280;66989;50.426;15.352;2023-05-16T12:22:27;97890.53;;;17.66;63.37
77799;BME280;66989;50.426;15.352;2023-05-16T12:24:53;97889.63;;;17.98;61.63
77799;BME280;66989;50.426;15.352;2023-05-16T12:27:23;97906.38;;;18.23;61.85
77799;BME280;66989;50.426;15.352;2023-05-16T12:29:50;97899.97;;;18.40;59.39
77799;BME280;66989;50.426;15.352;2023-05-16T12:32:20;97893.75;;;18.48;60.46
77799;BME280;66989;50.426;15.352;2023-05-16T12:34:49;97889.16;;;18.33;61.50
77799;BME280;66989;50.426;15.352;2023-05-16T12:37:16;97901.69;;;18.25;61.53
77799;BME280;66989;50.426;15.352;2023-05-16T12:39:43;97905.19;;;18.25;60.80
77799;BME280;66989;50.426;15.352;2023-05-16T12:42:11;97894.22;;;18.12;61.87
77799;BME280;66989;50.426;15.352;2023-05-16T12:44:37;97898.97;;;17.94;61.86
77799;BME280;66989;50.426;15.352;2023-05-16T12:47:03;97904.50;;;17.92;61.81
77799;BME280;66989;50.426;15.352;2023-05-16T12:49:29;97902.16;;;17.81;62.33
77799;BME280;66989;50.426;15.352;2023-05-16T12:51:55;97912.72;;;17.66;62.19
77799;BME280;66989;50.426;15.352;2023-05-16T12:54:22;97900.34;;;17.57;62.02
77799;BME280;66989;50.426;15.352;2023-05-16T12:56:48;97899.69;;;17.38;62.37
77799;BME280;66989;50.426;15.352;2023-05-16T12:59:14;97900.19;;;17.18;62.94
77799;BME280;66989;50.426;15.352;2023-05-16T13:01:39;97894.84;;;16.93;63.18